createdAt,value
2024-02-16T00:00:13.548Z,3.63
2024-02-16T00:02:43.466Z,2.88
2024-02-16T00:05:12.853Z,3.63
2024-02-16T00:07:40.834Z,3.42
2024-02-16T00:10:09.988Z,3.35
2024-02-16T00:12:37.796Z,3.60
2024-02-16T00:15:05.735Z,3.28
2024-02-16T00:17:34.434Z,3.55
2024-02-16T00:20:02.454Z,2.95
2024-02-16T00:22:30.159Z,3.00
2024-02-16T00:24:57.742Z,3.80
2024-02-16T00:27:25.386Z,3.25
2024-02-16T00:32:20.798Z,3.50
2024-02-16T00:37:15.838Z,3.17
2024-02-16T00:39:43.474Z,3.92
2024-02-16T00:42:12.262Z,3.35
2024-02-16T00:44:40.021Z,3.90
2024-02-16T00:49:35.556Z,3.83
2024-02-16T00:52:03.630Z,3.50
2024-02-16T00:54:31.325Z,3.55
2024-02-16T00:59:31.554Z,3.40
2024-02-16T01:01:59.337Z,3.25
2024-02-16T01:04:27.205Z,3.40
2024-02-16T01:06:54.781Z,3.95
2024-02-16T01:09:22.445Z,3.92
2024-02-16T01:11:49.993Z,3.85
2024-02-16T01:14:17.580Z,3.60
2024-02-16T01:16:45.170Z,3.78
2024-02-16T01:19:12.834Z,4.03
2024-02-16T01:24:07.968Z,3.50
2024-02-16T01:29:03.452Z,3.22
2024-02-16T01:31:31.171Z,3.95
2024-02-16T01:33:58.873Z,3.58
2024-02-16T01:36:26.650Z,3.47
2024-02-16T01:38:54.439Z,3.67
2024-02-16T01:43:49.496Z,3.08
2024-02-16T01:46:17.067Z,3.03
2024-02-16T01:48:44.761Z,3.45
2024-02-16T01:53:40.815Z,3.35
2024-02-16T01:56:08.684Z,3.25
2024-02-16T01:58:36.333Z,3.28
2024-02-16T02:01:04.827Z,3.03
2024-02-16T02:03:32.411Z,3.38
2024-02-16T02:06:00.345Z,3.17
2024-02-16T02:10:55.704Z,3.00
2024-02-16T02:13:23.514Z,2.65
2024-02-16T02:15:51.310Z,2.55
2024-02-16T02:20:46.855Z,2.70
2024-02-16T02:23:14.543Z,2.45
2024-02-16T02:25:42.103Z,2.80
2024-02-16T02:28:09.802Z,2.97
2024-02-16T02:33:06.930Z,3.00
2024-02-16T02:35:34.584Z,2.75
2024-02-16T02:38:02.767Z,3.20
2024-02-16T02:40:30.340Z,2.90
2024-02-16T02:42:57.847Z,3.10
2024-02-16T02:45:25.938Z,3.80
2024-02-16T02:47:53.776Z,3.17
2024-02-16T02:50:21.509Z,3.83
2024-02-16T02:52:49.186Z,3.92
2024-02-16T02:55:16.854Z,3.92
2024-02-16T02:57:44.378Z,4.03
2024-02-16T03:00:12.571Z,4.20
2024-02-16T03:02:40.919Z,4.68
2024-02-16T03:07:36.160Z,4.80
2024-02-16T03:12:31.711Z,4.53
2024-02-16T03:14:59.248Z,4.88
2024-02-16T03:17:26.796Z,4.35
2024-02-16T03:19:54.410Z,4.32
2024-02-16T03:22:22.503Z,4.68
2024-02-16T03:24:50.095Z,4.47
2024-02-16T03:27:17.710Z,4.88
2024-02-16T03:29:45.232Z,4.88
2024-02-16T03:32:12.709Z,4.95
2024-02-16T03:34:40.447Z,4.20
2024-02-16T03:39:35.510Z,4.30
2024-02-16T03:42:03.176Z,4.60
2024-02-16T03:44:30.866Z,4.88
2024-02-16T03:46:58.378Z,4.65
2024-02-16T03:49:29.214Z,4.30
2024-02-16T03:51:56.911Z,3.92
2024-02-16T03:54:24.634Z,3.95
2024-02-16T03:59:20.058Z,3.70
2024-02-16T04:01:47.878Z,4.30
2024-02-16T04:06:43.754Z,3.88
2024-02-16T04:09:11.620Z,1.77
2024-02-16T04:14:06.631Z,3.90
2024-02-16T04:16:34.116Z,3.67
2024-02-16T04:19:01.769Z,4.00
2024-02-16T04:21:29.482Z,4.40
2024-02-16T04:23:57.046Z,3.95
2024-02-16T04:26:24.698Z,4.07
2024-02-16T04:28:52.220Z,4.07
2024-02-16T04:31:19.740Z,5.20
2024-02-16T04:33:47.446Z,3.80
2024-02-16T04:38:49.263Z,4.93
2024-02-16T04:41:16.842Z,5.53
2024-02-16T04:43:44.452Z,4.57
2024-02-16T04:46:15.791Z,5.55
2024-02-16T04:48:43.674Z,5.07
2024-02-16T04:51:12.560Z,5.72
2024-02-16T04:53:40.186Z,4.63
2024-02-16T04:56:07.883Z,4.32
2024-02-16T04:58:35.607Z,3.58
2024-02-16T05:01:03.559Z,5.43
2024-02-16T05:03:31.283Z,4.40
2024-02-16T05:05:58.995Z,4.60
2024-02-16T05:08:26.573Z,5.88
2024-02-16T05:10:54.109Z,4.10
2024-02-16T05:13:21.635Z,5.05
2024-02-16T05:15:49.835Z,4.75
2024-02-16T05:18:18.970Z,4.40
2024-02-16T05:20:47.990Z,4.00
2024-02-16T05:23:15.545Z,4.10
2024-02-16T05:25:43.064Z,4.90
2024-02-16T05:28:10.707Z,4.85
2024-02-16T05:30:38.339Z,4.50
2024-02-16T05:33:06.194Z,3.40
2024-02-16T05:38:11.502Z,4.18
2024-02-16T05:40:54.510Z,4.38
2024-02-16T05:43:22.233Z,3.72
2024-02-16T05:45:49.817Z,3.72
2024-02-16T05:48:17.662Z,4.60
2024-02-16T05:53:12.830Z,4.38
2024-02-16T05:55:40.517Z,4.45
2024-02-16T05:58:08.247Z,4.07
2024-02-16T06:00:36.244Z,3.33
2024-02-16T06:03:04.014Z,3.67
2024-02-16T06:05:31.650Z,4.07
2024-02-16T06:08:00.011Z,3.70
2024-02-16T06:10:27.533Z,4.13
2024-02-16T06:12:55.053Z,4.47
2024-02-16T06:15:22.735Z,3.75
2024-02-16T06:17:53.725Z,3.70
2024-02-16T06:20:21.723Z,3.05
2024-02-16T06:22:49.489Z,3.60
2024-02-16T06:25:17.120Z,3.33
2024-02-16T06:27:44.775Z,3.33
2024-02-16T06:30:14.481Z,4.20
2024-02-16T06:32:42.548Z,3.35
2024-02-16T06:37:39.784Z,3.42
2024-02-16T06:40:11.110Z,3.78
2024-02-16T06:42:39.567Z,3.80
2024-02-16T06:45:07.503Z,3.65
2024-02-16T06:47:35.061Z,4.07
2024-02-16T06:50:02.742Z,3.60
2024-02-16T06:52:30.608Z,4.10
2024-02-16T06:54:58.611Z,3.85
2024-02-16T06:57:26.481Z,4.35
2024-02-16T06:59:54.563Z,4.28
2024-02-16T07:02:23.021Z,4.65
2024-02-16T07:04:50.756Z,4.72
2024-02-16T07:07:20.003Z,4.65
2024-02-16T07:09:47.684Z,5.57
2024-02-16T07:12:15.351Z,6.10
2024-02-16T07:14:42.968Z,5.75
2024-02-16T07:17:10.946Z,5.30
2024-02-16T07:19:39.091Z,5.97
2024-02-16T07:22:07.944Z,4.80
2024-02-16T07:24:35.831Z,4.78
2024-02-16T07:27:03.457Z,5.53
2024-02-16T07:29:31.142Z,3.75
2024-02-16T07:31:59.071Z,4.38
2024-02-16T07:34:26.821Z,5.35
2024-02-16T07:36:54.429Z,5.07
2024-02-16T07:39:24.662Z,5.32
2024-02-16T07:41:52.339Z,5.32
2024-02-16T07:44:19.873Z,4.85
2024-02-16T07:46:48.730Z,5.65
2024-02-16T07:49:16.348Z,5.50
2024-02-16T07:54:11.588Z,5.75
2024-02-16T07:56:39.148Z,6.57
2024-02-16T07:59:06.743Z,5.32
2024-02-16T08:01:34.252Z,6.13
2024-02-16T08:06:32.060Z,5.18
2024-02-16T08:08:59.747Z,5.22
2024-02-16T08:11:28.618Z,5.18
2024-02-16T08:13:57.033Z,5.20
2024-02-16T08:16:24.602Z,5.07
2024-02-16T08:18:52.653Z,5.10
2024-02-16T08:21:20.309Z,4.93
2024-02-16T08:23:48.219Z,5.63
2024-02-16T08:26:15.814Z,5.60
2024-02-16T08:28:45.932Z,4.88
2024-02-16T08:31:18.736Z,4.55
2024-02-16T08:33:48.003Z,5.00
2024-02-16T08:36:16.222Z,5.55
2024-02-16T08:38:43.799Z,4.40
2024-02-16T08:41:11.390Z,4.88
2024-02-16T08:43:39.055Z,5.03
2024-02-16T08:46:06.612Z,5.22
2024-02-16T08:48:34.255Z,4.75
2024-02-16T08:51:01.855Z,4.65
2024-02-16T08:53:29.399Z,4.70
2024-02-16T08:55:57.770Z,4.53
2024-02-16T08:58:25.269Z,5.00
2024-02-16T09:00:52.871Z,4.65
2024-02-16T09:05:49.020Z,4.20
2024-02-16T09:08:16.601Z,4.75
2024-02-16T09:10:44.130Z,3.78
2024-02-16T09:13:11.614Z,4.03
2024-02-16T09:15:39.353Z,4.18
2024-02-16T09:18:07.171Z,3.80
2024-02-16T09:20:34.890Z,3.67
2024-02-16T09:23:02.451Z,3.92
2024-02-16T09:27:57.429Z,4.00
2024-02-16T09:32:52.854Z,3.65
2024-02-16T09:35:20.479Z,4.05
2024-02-16T09:40:16.411Z,3.80
2024-02-16T09:42:44.068Z,3.92
2024-02-16T09:45:13.585Z,4.70
2024-02-16T09:50:10.737Z,4.55
2024-02-16T09:52:38.640Z,4.15
2024-02-16T09:55:08.065Z,4.60
2024-02-16T09:57:35.619Z,4.13
2024-02-16T10:02:46.139Z,4.05
2024-02-16T10:05:13.978Z,4.22
2024-02-16T10:07:41.621Z,3.83
2024-02-16T10:10:33.357Z,3.35
2024-02-16T10:13:05.296Z,3.13
2024-02-16T10:15:33.620Z,4.10
2024-02-16T10:18:01.295Z,3.35
2024-02-16T10:20:29.113Z,3.55
2024-02-16T10:23:12.526Z,3.53
2024-02-16T10:25:41.971Z,3.17
2024-02-16T10:28:15.180Z,3.92
2024-02-16T10:30:46.701Z,2.85
2024-02-16T10:33:14.870Z,3.35
2024-02-16T10:35:43.102Z,3.60
2024-02-16T10:38:13.000Z,3.20
2024-02-16T10:40:41.376Z,4.13
2024-02-16T10:43:10.392Z,3.83
2024-02-16T10:45:41.826Z,4.07
2024-02-16T10:48:09.681Z,4.10
2024-02-16T10:50:38.163Z,4.72
2024-02-16T10:53:07.687Z,4.65
2024-02-16T10:55:35.517Z,4.32
2024-02-16T10:58:03.166Z,3.72
2024-02-16T11:00:30.846Z,4.57
2024-02-16T11:03:02.362Z,4.30
2024-02-16T11:05:35.956Z,4.00
2024-02-16T11:08:07.249Z,4.25
2024-02-16T11:10:35.107Z,4.30
2024-02-16T11:13:05.700Z,4.30
2024-02-16T11:15:34.424Z,3.65
2024-02-16T11:18:02.863Z,3.80
2024-02-16T11:20:30.637Z,4.28
2024-02-16T11:23:08.593Z,4.30
2024-02-16T11:25:37.618Z,4.57
2024-02-16T11:28:05.532Z,4.78
2024-02-16T11:30:37.016Z,4.47
2024-02-16T11:33:06.279Z,3.08
2024-02-16T11:35:34.125Z,2.55
2024-02-16T11:38:02.805Z,1.95
2024-02-16T11:40:31.545Z,1.90
2024-02-16T11:42:59.850Z,1.80
2024-02-16T11:45:27.703Z,1.50
2024-02-16T11:48:05.809Z,1.40
2024-02-16T11:50:33.453Z,1.92
2024-02-16T11:53:01.001Z,2.00
2024-02-16T11:55:28.656Z,1.50
2024-02-16T11:57:57.786Z,1.90
2024-02-16T12:00:25.565Z,1.85
2024-02-16T12:03:02.634Z,1.30
2024-02-16T12:05:31.072Z,1.67
2024-02-16T12:07:59.763Z,1.80
2024-02-16T12:10:28.517Z,1.48
2024-02-16T12:12:58.553Z,1.98
2024-02-16T12:15:27.912Z,1.77
2024-02-16T12:18:03.038Z,1.60
2024-02-16T12:20:35.046Z,1.77
2024-02-16T12:23:12.805Z,2.45
2024-02-16T12:25:40.363Z,1.42
2024-02-16T12:30:36.510Z,2.08
2024-02-16T12:33:04.262Z,2.05
2024-02-16T12:35:31.943Z,1.67
2024-02-16T12:40:27.845Z,1.67
2024-02-16T12:42:55.425Z,2.45
2024-02-16T12:45:23.079Z,1.40
2024-02-16T12:47:51.337Z,1.90
2024-02-16T12:50:19.708Z,1.50
2024-02-16T12:52:54.722Z,1.63
2024-02-16T12:55:27.304Z,2.00
2024-02-16T12:57:55.100Z,1.60
2024-02-16T13:00:22.867Z,1.67
2024-02-16T13:02:50.478Z,1.77
2024-02-16T13:07:45.764Z,1.35
2024-02-16T13:10:13.605Z,1.83
2024-02-16T13:12:43.987Z,1.85
2024-02-16T13:15:22.525Z,2.08
2024-02-16T13:17:56.512Z,1.63
2024-02-16T13:20:24.486Z,2.28
2024-02-16T13:22:52.217Z,2.30
2024-02-16T13:25:21.985Z,1.50
2024-02-16T13:27:49.751Z,1.50
2024-02-16T13:30:17.474Z,1.83
2024-02-16T13:32:45.188Z,1.60
2024-02-16T13:35:15.164Z,1.50
2024-02-16T13:37:43.488Z,1.50
2024-02-16T13:40:14.593Z,2.10
2024-02-16T13:42:42.840Z,2.20
2024-02-16T13:45:13.426Z,1.75
2024-02-16T13:47:41.110Z,1.88
2024-02-16T13:50:09.112Z,1.55
2024-02-16T13:52:37.055Z,1.95
2024-02-16T13:55:04.878Z,1.52
2024-02-16T13:57:32.518Z,1.77
2024-02-16T14:00:00.104Z,2.03
2024-02-16T14:02:27.731Z,2.00
2024-02-16T14:04:57.621Z,2.00
2024-02-16T14:07:25.352Z,2.13
2024-02-16T14:09:52.965Z,2.05
2024-02-16T14:12:20.536Z,1.77
2024-02-16T14:14:48.124Z,1.90
2024-02-16T14:19:43.555Z,1.70
2024-02-16T14:22:13.480Z,2.00
2024-02-16T14:24:41.261Z,2.03
2024-02-16T14:27:08.929Z,1.90
2024-02-16T14:29:36.579Z,1.77
2024-02-16T14:32:04.234Z,1.95
2024-02-16T14:34:32.249Z,1.58
2024-02-16T14:36:59.980Z,1.63
2024-02-16T14:39:27.639Z,1.77
2024-02-16T14:41:55.237Z,1.60
2024-02-16T14:44:22.849Z,1.50
2024-02-16T14:49:22.511Z,1.80
2024-02-16T14:51:50.571Z,1.80
2024-02-16T14:54:18.262Z,1.70
2024-02-16T14:56:45.890Z,1.52
2024-02-16T15:01:41.955Z,1.80
2024-02-16T15:04:09.660Z,2.00
2024-02-16T15:06:37.876Z,2.70
2024-02-16T15:09:06.076Z,2.25
2024-02-16T15:11:33.818Z,1.83
2024-02-16T15:14:01.844Z,1.83
2024-02-16T15:16:29.740Z,1.55
2024-02-16T15:21:25.006Z,2.10
2024-02-16T15:23:52.617Z,2.00
2024-02-16T15:28:47.783Z,1.80
2024-02-16T15:31:15.375Z,1.90
2024-02-16T15:36:10.668Z,1.52
2024-02-16T15:41:05.847Z,1.83
2024-02-16T15:43:33.534Z,1.50
2024-02-16T15:46:01.079Z,2.00
2024-02-16T15:48:29.415Z,2.55
2024-02-16T15:50:59.710Z,1.85
2024-02-16T15:53:27.694Z,1.80
2024-02-16T15:55:55.208Z,1.90
2024-02-16T16:00:50.442Z,1.90
2024-02-16T16:03:18.229Z,1.80
2024-02-16T16:05:45.887Z,1.77
2024-02-16T16:08:13.443Z,2.30
2024-02-16T16:10:41.404Z,2.30
2024-02-16T16:13:12.122Z,1.80
2024-02-16T16:15:41.727Z,1.73
2024-02-16T16:18:10.100Z,2.38
2024-02-16T16:20:37.896Z,2.10
2024-02-16T16:23:05.550Z,2.15
2024-02-16T16:25:33.134Z,2.00
2024-02-16T16:30:27.791Z,2.03
2024-02-16T16:32:56.549Z,2.47
2024-02-16T16:35:24.430Z,2.33
2024-02-16T16:37:52.096Z,2.17
2024-02-16T16:42:47.438Z,2.20
2024-02-16T16:45:15.275Z,1.92
2024-02-16T16:47:43.294Z,1.90
2024-02-16T16:50:11.590Z,2.05
2024-02-16T16:52:39.664Z,2.00
2024-02-16T16:55:07.304Z,1.75
2024-02-16T16:57:34.917Z,2.35
2024-02-16T17:00:02.707Z,2.55
2024-02-16T17:02:30.366Z,2.33
2024-02-16T17:07:25.795Z,2.28
2024-02-16T17:09:55.697Z,2.38
2024-02-16T17:12:24.524Z,2.88
2024-02-16T17:14:52.614Z,2.40
2024-02-16T17:17:20.641Z,2.55
2024-02-16T17:19:48.456Z,2.60
2024-02-16T17:22:16.293Z,2.60
2024-02-16T17:24:44.000Z,2.72
2024-02-16T17:27:11.714Z,2.63
2024-02-16T17:32:06.862Z,2.90
2024-02-16T17:34:34.589Z,3.28
2024-02-16T17:37:02.239Z,2.88
2024-02-16T17:39:29.962Z,3.20
2024-02-16T17:41:58.175Z,3.20
2024-02-16T17:44:25.914Z,3.60
2024-02-16T17:49:21.154Z,3.40
2024-02-16T17:51:49.023Z,2.97
2024-02-16T17:54:16.836Z,3.33
2024-02-16T17:56:44.407Z,3.45
2024-02-16T17:59:11.997Z,3.70
2024-02-16T18:01:42.974Z,3.92
2024-02-16T18:04:10.723Z,3.90
2024-02-16T18:09:11.074Z,3.45
2024-02-16T18:11:38.701Z,3.65
2024-02-16T18:16:33.730Z,4.28
2024-02-16T18:21:28.974Z,4.35
2024-02-16T18:23:56.610Z,4.70
2024-02-16T18:28:51.841Z,4.03
2024-02-16T18:33:47.081Z,3.40
2024-02-16T18:36:14.727Z,3.10
2024-02-16T18:38:44.298Z,3.45
2024-02-16T18:41:12.549Z,3.75
2024-02-16T18:43:40.100Z,3.53
2024-02-16T18:46:07.651Z,3.53
2024-02-16T18:48:35.460Z,3.67
2024-02-16T18:51:03.246Z,3.50
2024-02-16T18:53:31.193Z,3.15
2024-02-16T18:55:58.794Z,3.88
2024-02-16T18:58:26.293Z,3.90
2024-02-16T19:00:53.901Z,3.60
2024-02-16T19:03:21.797Z,3.47
2024-02-16T19:05:49.420Z,3.95
2024-02-16T19:08:16.998Z,3.72
2024-02-16T19:10:44.634Z,3.42
2024-02-16T19:13:12.976Z,4.28
2024-02-16T19:15:40.672Z,5.03
2024-02-16T19:20:36.560Z,6.53
2024-02-16T19:25:31.665Z,5.60
2024-02-16T19:27:59.275Z,6.18
2024-02-16T19:30:27.814Z,5.95
2024-02-16T19:32:55.407Z,5.57
2024-02-16T19:35:23.648Z,5.50
2024-02-16T19:37:51.293Z,5.10
2024-02-16T19:40:18.958Z,5.05
2024-02-16T19:45:15.132Z,4.63
2024-02-16T19:47:46.062Z,3.58
2024-02-16T19:50:14.351Z,4.00
2024-02-16T19:52:42.080Z,3.78
2024-02-16T19:57:37.472Z,3.00
2024-02-16T20:00:05.932Z,4.00
2024-02-16T20:02:34.312Z,3.42
2024-02-16T20:05:02.066Z,3.85
2024-02-16T20:07:34.928Z,4.05
2024-02-16T20:10:06.022Z,4.03
2024-02-16T20:12:33.714Z,3.60
2024-02-16T20:17:28.780Z,3.78
2024-02-16T20:20:02.065Z,4.45
2024-02-16T20:22:29.713Z,4.25
2024-02-16T20:24:57.247Z,4.22
2024-02-16T20:27:25.405Z,4.80
2024-02-16T20:29:53.417Z,5.30
2024-02-16T20:34:50.334Z,4.55
2024-02-16T20:39:46.316Z,4.70
2024-02-16T20:42:14.629Z,4.70
2024-02-16T20:44:42.208Z,5.00
2024-02-16T20:47:09.898Z,4.40
2024-02-16T20:52:04.965Z,3.60
2024-02-16T20:54:33.596Z,4.57
2024-02-16T20:57:03.719Z,4.55
2024-02-16T20:59:31.294Z,4.50
2024-02-16T21:01:58.800Z,3.95
2024-02-16T21:04:33.641Z,4.55
2024-02-16T21:07:05.105Z,4.57
2024-02-16T21:09:33.032Z,4.18
2024-02-16T21:12:04.165Z,3.50
2024-02-16T21:14:31.819Z,4.88
2024-02-16T21:16:59.641Z,4.50
2024-02-16T21:19:27.302Z,4.32
2024-02-16T21:24:22.644Z,4.35
2024-02-16T21:26:50.402Z,4.20
2024-02-16T21:31:45.740Z,4.13
2024-02-16T21:34:13.971Z,3.75
2024-02-16T21:36:42.357Z,3.97
2024-02-16T21:39:10.142Z,3.83
2024-02-16T21:41:37.897Z,4.32
2024-02-16T21:44:05.659Z,4.35
2024-02-16T21:49:04.963Z,4.20
2024-02-16T21:51:33.862Z,4.07
2024-02-16T21:54:01.686Z,4.20
2024-02-16T21:56:29.511Z,4.45
2024-02-16T21:58:57.233Z,4.82
2024-02-16T22:03:52.807Z,4.40
2024-02-16T22:06:21.471Z,4.00
2024-02-16T22:08:52.888Z,4.05
2024-02-16T22:11:21.839Z,4.22
2024-02-16T22:13:50.262Z,4.25
2024-02-16T22:16:19.165Z,3.60
2024-02-16T22:18:48.262Z,3.58
2024-02-16T22:21:18.362Z,4.65
2024-02-16T22:23:50.289Z,3.50
2024-02-16T22:26:17.973Z,4.57
2024-02-16T22:28:45.595Z,4.35
2024-02-16T22:31:13.124Z,4.20
2024-02-16T22:33:40.766Z,4.63
2024-02-16T22:38:36.098Z,3.90
2024-02-16T22:41:03.716Z,4.70
2024-02-16T22:43:32.570Z,4.50
2024-02-16T22:46:00.106Z,4.63
2024-02-16T22:48:27.793Z,4.28
2024-02-16T22:50:55.411Z,4.82
2024-02-16T22:53:23.051Z,4.65
2024-02-16T22:58:18.093Z,4.30
2024-02-16T23:00:46.285Z,3.92
2024-02-16T23:03:14.082Z,5.70
2024-02-16T23:05:41.849Z,4.88
2024-02-16T23:10:38.739Z,4.38
2024-02-16T23:13:06.697Z,4.65
2024-02-16T23:15:34.794Z,4.25
2024-02-16T23:18:03.145Z,4.28
2024-02-16T23:20:31.252Z,3.50
2024-02-16T23:22:59.761Z,3.50
2024-02-16T23:25:28.000Z,4.38
2024-02-16T23:27:55.804Z,5.90
2024-02-16T23:30:23.457Z,4.13
2024-02-16T23:35:19.052Z,4.22
2024-02-16T23:37:46.678Z,3.80
2024-02-16T23:40:15.571Z,3.42
2024-02-16T23:42:46.115Z,3.38
2024-02-16T23:45:14.354Z,3.08
2024-02-16T23:47:43.378Z,3.15
2024-02-16T23:50:11.564Z,3.13
2024-02-16T23:52:39.316Z,4.63
2024-02-16T23:57:34.646Z,3.45
